createdAt,value
2023-04-28T00:00:43.092Z,6.03
2023-04-28T00:03:11.508Z,6.82
2023-04-28T00:05:39.947Z,6.60
2023-04-28T00:08:08.337Z,5.63
2023-04-28T00:10:37.832Z,5.10
2023-04-28T00:13:06.108Z,4.50
2023-04-28T00:15:34.357Z,4.20
2023-04-28T00:18:02.570Z,5.43
2023-04-28T00:20:30.684Z,4.90
2023-04-28T00:22:58.935Z,5.03
2023-04-28T00:25:27.067Z,5.00
2023-04-28T00:27:56.511Z,4.77
2023-04-28T00:30:25.209Z,5.80
2023-04-28T00:32:53.468Z,5.13
2023-04-28T00:35:22.011Z,5.20
2023-04-28T00:37:50.337Z,5.30
2023-04-28T00:40:18.472Z,5.03
2023-04-28T00:42:46.581Z,5.30
2023-04-28T00:45:16.075Z,5.00
2023-04-28T00:47:44.462Z,5.17
2023-04-28T00:50:13.452Z,4.83
2023-04-28T00:52:41.889Z,5.30
2023-04-28T00:55:11.136Z,4.10
2023-04-28T00:57:40.090Z,4.85
2023-04-28T01:00:10.094Z,4.23
2023-04-28T01:02:40.042Z,4.13
2023-04-28T01:05:10.709Z,4.13
2023-04-28T01:07:39.403Z,4.10
2023-04-28T01:10:10.586Z,3.97
2023-04-28T01:12:38.784Z,4.07
2023-04-28T01:15:13.067Z,4.20
2023-04-28T01:17:42.966Z,5.37
2023-04-28T01:20:12.218Z,4.30
2023-04-28T01:22:40.767Z,4.57
2023-04-28T01:25:11.090Z,3.93
2023-04-28T01:27:42.300Z,4.15
2023-04-28T01:30:11.491Z,3.80
2023-04-28T01:32:40.445Z,4.15
2023-04-28T01:35:09.437Z,3.83
2023-04-28T01:37:37.982Z,4.30
2023-04-28T01:40:08.283Z,3.50
2023-04-28T01:42:37.894Z,4.10
2023-04-28T01:45:07.272Z,3.67
2023-04-28T01:47:35.426Z,4.20
2023-04-28T01:50:03.796Z,4.20
2023-04-28T01:52:32.018Z,3.78
2023-04-28T01:55:00.312Z,4.30
2023-04-28T01:57:29.693Z,4.50
2023-04-28T02:00:00.590Z,4.23
2023-04-28T02:02:29.590Z,4.03
2023-04-28T02:04:58.956Z,3.93
2023-04-28T02:07:27.108Z,3.88
2023-04-28T02:09:55.320Z,4.27
2023-04-28T02:12:23.977Z,4.60
2023-04-28T02:14:52.481Z,4.50
2023-04-28T02:17:22.898Z,4.32
2023-04-28T02:19:57.523Z,3.70
2023-04-28T02:22:26.034Z,4.18
2023-04-28T02:24:54.127Z,3.75
2023-04-28T02:27:22.841Z,4.23
2023-04-28T02:29:51.644Z,4.80
2023-04-28T02:32:19.865Z,4.13
2023-04-28T02:34:55.087Z,4.57
2023-04-28T02:37:24.757Z,4.10
2023-04-28T02:39:53.337Z,5.13
2023-04-28T02:42:22.250Z,4.43
2023-04-28T02:44:50.411Z,4.80
2023-04-28T02:47:18.556Z,4.60
2023-04-28T02:49:46.989Z,4.30
2023-04-28T02:52:19.442Z,4.43
2023-04-28T02:54:48.954Z,4.73
2023-04-28T02:57:18.165Z,4.40
2023-04-28T02:59:46.481Z,4.43
2023-04-28T03:02:14.823Z,4.95
2023-04-28T03:04:43.221Z,4.53
2023-04-28T03:07:11.419Z,4.30
2023-04-28T03:09:42.382Z,4.70
2023-04-28T03:12:10.727Z,4.60
2023-04-28T03:14:38.857Z,4.53
2023-04-28T03:17:07.536Z,3.83
2023-04-28T03:19:35.669Z,4.37
2023-04-28T03:22:03.784Z,5.00
2023-04-28T03:24:33.330Z,3.70
2023-04-28T03:27:03.680Z,4.47
2023-04-28T03:29:32.071Z,4.75
2023-04-28T03:32:00.327Z,4.82
2023-04-28T03:34:28.908Z,4.63
2023-04-28T03:36:57.376Z,5.10
2023-04-28T03:39:30.651Z,3.90
2023-04-28T03:41:59.051Z,4.43
2023-04-28T03:44:40.520Z,4.50
2023-04-28T03:47:09.092Z,4.43
2023-04-28T03:49:38.097Z,4.33
2023-04-28T03:52:06.301Z,4.70
2023-04-28T03:54:35.553Z,4.40
2023-04-28T03:57:04.634Z,4.80
2023-04-28T03:59:34.686Z,4.35
2023-04-28T04:02:04.431Z,4.30
2023-04-28T04:04:33.271Z,4.97
2023-04-28T04:07:02.057Z,4.07
2023-04-28T04:09:30.972Z,5.30
2023-04-28T04:12:01.133Z,3.85
2023-04-28T04:14:29.410Z,4.83
2023-04-28T04:16:57.567Z,4.07
2023-04-28T04:19:27.985Z,4.22
2023-04-28T04:21:56.778Z,3.60
2023-04-28T04:24:25.159Z,4.30
2023-04-28T04:26:53.492Z,4.90
2023-04-28T04:29:37.894Z,4.53
2023-04-28T04:32:12.981Z,4.10
2023-04-28T04:34:43.546Z,4.13
2023-04-28T04:37:12.486Z,4.65
2023-04-28T04:40:00.853Z,4.55
2023-04-28T04:42:33.312Z,4.00
2023-04-28T04:45:09.730Z,4.38
2023-04-28T04:47:38.667Z,4.70
2023-04-28T04:50:10.538Z,4.35
2023-04-28T04:52:39.182Z,4.38
2023-04-28T04:55:11.199Z,4.25
2023-04-28T04:57:41.655Z,4.30
2023-04-28T05:00:24.475Z,4.80
2023-04-28T05:02:54.614Z,3.88
2023-04-28T05:05:24.795Z,4.32
2023-04-28T05:08:06.292Z,3.95
2023-04-28T05:10:35.825Z,4.00
2023-04-28T05:13:05.024Z,4.30
2023-04-28T05:15:33.363Z,3.90
2023-04-28T05:18:20.257Z,4.28
2023-04-28T05:20:49.910Z,4.70
2023-04-28T05:23:21.487Z,3.63
2023-04-28T05:25:49.675Z,3.95
2023-04-28T05:28:20.091Z,4.20
2023-04-28T05:30:50.696Z,4.53
2023-04-28T05:33:18.849Z,4.38
2023-04-28T05:35:50.558Z,4.43
2023-04-28T05:38:18.837Z,3.83
2023-04-28T05:40:48.918Z,4.15
2023-04-28T05:43:18.688Z,3.90
2023-04-28T05:45:47.013Z,4.60
2023-04-28T05:48:16.163Z,3.88
2023-04-28T05:50:45.105Z,4.57
2023-04-28T05:53:14.911Z,3.83
2023-04-28T05:55:43.129Z,4.38
2023-04-28T05:58:11.673Z,4.47
2023-04-28T06:00:40.131Z,5.00
2023-04-28T06:03:11.197Z,4.80
2023-04-28T06:05:40.581Z,4.63
2023-04-28T06:08:08.978Z,4.40
2023-04-28T06:10:41.531Z,5.20
2023-04-28T06:13:09.679Z,5.38
2023-04-28T06:15:38.198Z,4.53
2023-04-28T06:18:07.358Z,4.78
2023-04-28T06:20:35.665Z,4.70
2023-04-28T06:23:05.005Z,4.90
2023-04-28T06:25:33.308Z,5.55
2023-04-28T06:28:02.909Z,5.63
2023-04-28T06:30:31.399Z,5.13
2023-04-28T06:32:59.594Z,5.30
2023-04-28T06:35:29.497Z,5.18
2023-04-28T06:37:57.743Z,5.07
2023-04-28T06:40:25.883Z,5.28
2023-04-28T06:42:57.748Z,4.97
2023-04-28T06:45:35.030Z,5.10
2023-04-28T06:48:03.258Z,5.03
2023-04-28T06:50:31.473Z,5.45
2023-04-28T06:52:59.687Z,5.45
2023-04-28T06:55:31.038Z,5.53
2023-04-28T06:58:00.158Z,5.45
2023-04-28T07:00:28.472Z,4.72
2023-04-28T07:02:58.194Z,5.38
2023-04-28T07:05:26.956Z,5.18
2023-04-28T07:07:55.151Z,5.60
2023-04-28T07:10:23.319Z,5.40
2023-04-28T07:12:52.353Z,5.90
2023-04-28T07:15:20.822Z,6.00
2023-04-28T07:17:49.035Z,6.07
2023-04-28T07:20:18.859Z,5.97
2023-04-28T07:22:47.038Z,6.00
2023-04-28T07:25:15.559Z,5.95
2023-04-28T07:27:43.817Z,6.20
2023-04-28T07:30:25.606Z,6.32
2023-04-28T07:32:54.656Z,5.43
2023-04-28T07:35:24.314Z,5.70
2023-04-28T07:37:52.574Z,6.28
2023-04-28T07:40:21.166Z,6.95
2023-04-28T07:42:49.400Z,6.50
2023-04-28T07:45:17.874Z,6.47
2023-04-28T07:47:46.020Z,6.50
2023-04-28T07:50:14.548Z,6.22
2023-04-28T07:52:44.496Z,6.55
2023-04-28T07:55:12.642Z,6.40
2023-04-28T07:57:42.231Z,6.30
2023-04-28T08:00:11.921Z,6.28
2023-04-28T08:02:41.127Z,7.25
2023-04-28T08:05:10.956Z,6.20
2023-04-28T08:07:39.378Z,6.70
2023-04-28T08:10:13.166Z,7.20
2023-04-28T08:12:42.283Z,5.75
2023-04-28T08:15:11.650Z,6.38
2023-04-28T08:17:40.230Z,7.35
2023-04-28T08:20:10.720Z,6.68
2023-04-28T08:22:38.964Z,6.75
2023-04-28T08:25:10.740Z,6.25
2023-04-28T08:27:40.011Z,6.70
2023-04-28T08:30:10.333Z,6.22
2023-04-28T08:32:38.617Z,6.38
2023-04-28T08:35:08.506Z,7.03
2023-04-28T08:37:37.091Z,5.88
2023-04-28T08:40:09.706Z,6.50
2023-04-28T08:42:39.801Z,6.60
2023-04-28T08:45:13.760Z,6.28
2023-04-28T08:47:45.873Z,6.57
2023-04-28T08:50:15.319Z,6.38
2023-04-28T08:52:44.214Z,7.00
2023-04-28T08:55:15.654Z,6.20
2023-04-28T08:57:49.780Z,7.13
2023-04-28T09:00:18.550Z,6.15
2023-04-28T09:02:46.926Z,6.13
2023-04-28T09:05:15.920Z,6.10
2023-04-28T09:07:48.775Z,6.38
2023-04-28T09:10:22.632Z,7.03
2023-04-28T09:12:54.143Z,6.55
2023-04-28T09:15:34.406Z,6.55
2023-04-28T09:18:03.733Z,6.40
2023-04-28T09:20:34.045Z,6.95
2023-04-28T09:23:17.431Z,7.40
2023-04-28T09:26:00.908Z,6.47
2023-04-28T09:28:30.855Z,7.53
2023-04-28T09:30:59.045Z,7.68
2023-04-28T09:33:27.834Z,8.10
2023-04-28T09:35:56.489Z,7.80
2023-04-28T09:38:25.133Z,8.15
2023-04-28T09:41:01.266Z,8.32
2023-04-28T09:43:32.862Z,8.70
2023-04-28T09:46:02.940Z,8.75
2023-04-28T09:48:33.938Z,8.30
2023-04-28T09:51:03.663Z,8.15
2023-04-28T09:53:32.953Z,8.15
2023-04-28T09:56:05.083Z,8.38
2023-04-28T09:58:39.025Z,9.30
2023-04-28T10:01:11.224Z,8.80
2023-04-28T10:03:41.442Z,8.60
2023-04-28T10:06:09.716Z,8.65
2023-04-28T10:08:41.898Z,7.40
2023-04-28T10:11:13.476Z,7.93
2023-04-28T10:13:44.280Z,8.68
2023-04-28T10:16:13.287Z,7.97
2023-04-28T10:18:42.899Z,7.80
2023-04-28T10:21:13.715Z,8.40
2023-04-28T10:24:01.626Z,7.90
2023-04-28T10:27:16.417Z,7.85
2023-04-28T10:29:46.541Z,6.85
2023-04-28T10:32:20.959Z,8.07
2023-04-28T10:34:49.608Z,7.60
2023-04-28T10:37:18.991Z,7.43
2023-04-28T10:40:34.202Z,8.35
2023-04-28T10:43:02.860Z,7.53
2023-04-28T10:46:06.339Z,7.30
2023-04-28T10:49:08.390Z,6.68
2023-04-28T10:51:37.546Z,6.45
2023-04-28T10:54:19.135Z,7.00
2023-04-28T10:57:23.064Z,7.28
2023-04-28T10:59:52.177Z,6.25
2023-04-28T11:02:43.699Z,5.93
2023-04-28T11:05:20.380Z,6.57
2023-04-28T11:08:34.774Z,6.57
2023-04-28T11:11:20.783Z,6.15
2023-04-28T11:13:50.629Z,6.63
2023-04-28T11:16:25.840Z,5.93
2023-04-28T11:19:00.028Z,6.15
2023-04-28T11:21:29.344Z,6.10
2023-04-28T11:23:59.710Z,5.82
2023-04-28T11:26:30.056Z,5.90
2023-04-28T11:28:59.653Z,6.65
2023-04-28T11:31:28.818Z,6.70
2023-04-28T11:34:06.115Z,5.45
2023-04-28T11:36:37.523Z,6.28
2023-04-28T11:39:07.910Z,5.57
2023-04-28T11:41:37.141Z,5.80
2023-04-28T11:44:13.229Z,5.20
2023-04-28T11:46:51.664Z,5.07
2023-04-28T11:49:21.723Z,5.32
2023-04-28T11:51:50.285Z,6.93
2023-04-28T11:54:23.794Z,7.95
2023-04-28T11:56:53.443Z,7.50
2023-04-28T11:59:27.136Z,7.65
2023-04-28T12:01:59.148Z,7.50
2023-04-28T12:04:35.868Z,7.47
2023-04-28T12:07:07.133Z,6.05
2023-04-28T12:09:36.269Z,6.78
2023-04-28T12:12:07.229Z,5.43
2023-04-28T12:14:57.320Z,6.25
2023-04-28T12:17:27.275Z,5.95
2023-04-28T12:19:57.918Z,5.70
2023-04-28T12:22:27.283Z,5.38
2023-04-28T12:25:07.838Z,5.57
2023-04-28T12:27:39.189Z,5.75
2023-04-28T12:30:25.975Z,6.30
2023-04-28T12:32:55.822Z,5.22
2023-04-28T12:35:26.858Z,5.07
2023-04-28T12:37:58.391Z,5.15
2023-04-28T12:40:26.975Z,4.68
2023-04-28T12:42:55.285Z,5.03
2023-04-28T12:45:23.488Z,5.07
2023-04-28T12:47:51.956Z,4.65
2023-04-28T12:50:20.315Z,4.68
2023-04-28T12:52:49.814Z,4.63
2023-04-28T12:55:18.155Z,4.90
2023-04-28T12:57:46.365Z,4.85
2023-04-28T13:00:17.134Z,5.03
2023-04-28T13:02:45.885Z,4.60
2023-04-28T13:05:14.519Z,5.30
2023-04-28T13:07:43.001Z,4.57
2023-04-28T13:10:13.652Z,4.30
2023-04-28T13:12:42.439Z,4.38
2023-04-28T13:15:12.622Z,3.95
2023-04-28T13:17:40.835Z,4.47
2023-04-28T13:20:10.971Z,4.15
2023-04-28T13:22:39.330Z,4.70
2023-04-28T13:25:09.374Z,3.90
2023-04-28T13:27:40.103Z,4.20
2023-04-28T13:30:11.473Z,4.43
2023-04-28T13:32:39.721Z,4.45
2023-04-28T13:35:09.493Z,4.05
2023-04-28T13:37:42.555Z,4.53
2023-04-28T13:40:12.234Z,4.47
2023-04-28T13:42:41.709Z,3.92
2023-04-28T13:45:10.851Z,4.43
2023-04-28T13:47:42.361Z,4.53
2023-04-28T13:50:11.036Z,3.92
2023-04-28T13:52:39.232Z,4.57
2023-04-28T13:55:08.220Z,4.72
2023-04-28T13:57:36.899Z,4.38
2023-04-28T14:00:08.510Z,4.40
2023-04-28T14:02:37.471Z,5.20
2023-04-28T14:05:06.891Z,4.57
2023-04-28T14:07:38.171Z,4.05
2023-04-28T14:10:07.049Z,4.53
2023-04-28T14:12:35.450Z,4.78
2023-04-28T14:15:03.672Z,5.13
2023-04-28T14:17:34.799Z,4.90
2023-04-28T14:20:07.294Z,4.22
2023-04-28T14:22:35.769Z,4.20
2023-04-28T14:25:03.928Z,4.10
2023-04-28T14:27:32.983Z,4.35
2023-04-28T14:30:02.104Z,4.28
2023-04-28T14:32:30.324Z,4.20
2023-04-28T14:35:01.010Z,4.15
2023-04-28T14:37:29.223Z,3.83
2023-04-28T14:39:57.559Z,3.28
2023-04-28T14:42:32.066Z,3.28
2023-04-28T14:45:00.845Z,2.70
2023-04-28T14:47:29.089Z,2.65
2023-04-28T14:49:58.999Z,2.00
2023-04-28T14:52:29.089Z,2.25
2023-04-28T14:54:58.866Z,1.88
2023-04-28T14:57:27.300Z,1.83
2023-04-28T14:59:55.931Z,1.90
2023-04-28T15:02:29.171Z,2.42
2023-04-28T15:04:59.290Z,2.22
2023-04-28T15:07:31.282Z,2.55
2023-04-28T15:10:00.227Z,3.70
2023-04-28T15:12:30.191Z,3.10
2023-04-28T15:14:58.568Z,3.85
2023-04-28T15:17:27.099Z,2.65
2023-04-28T15:19:55.270Z,2.55
2023-04-28T15:22:24.907Z,3.10
2023-04-28T15:24:53.278Z,4.25
2023-04-28T15:27:21.399Z,3.40
2023-04-28T15:29:49.562Z,3.78
2023-04-28T15:32:18.176Z,3.25
2023-04-28T15:34:46.321Z,4.10
2023-04-28T15:37:42.855Z,5.30
2023-04-28T15:40:14.570Z,4.45
2023-04-28T15:42:48.599Z,3.25
2023-04-28T15:45:18.319Z,4.43
2023-04-28T15:47:49.299Z,2.80
2023-04-28T15:50:19.845Z,3.92
2023-04-28T15:52:51.132Z,4.30
2023-04-28T15:55:22.007Z,3.60
2023-04-28T15:57:51.076Z,3.47
2023-04-28T16:00:19.553Z,2.80
2023-04-28T16:02:48.527Z,2.13
2023-04-28T16:05:16.861Z,2.30
2023-04-28T16:07:45.340Z,1.92
2023-04-28T16:10:17.393Z,2.67
2023-04-28T16:12:45.641Z,2.90
2023-04-28T16:15:14.758Z,2.75
2023-04-28T16:17:44.190Z,2.83
2023-04-28T16:20:13.348Z,2.63
2023-04-28T16:22:45.057Z,2.63
2023-04-28T16:25:14.592Z,2.17
2023-04-28T16:27:43.010Z,2.90
2023-04-28T16:30:11.997Z,2.40
2023-04-28T16:32:40.962Z,2.53
2023-04-28T16:35:14.972Z,3.60
2023-04-28T16:37:44.057Z,3.45
2023-04-28T16:40:15.019Z,4.18
2023-04-28T16:42:43.518Z,5.15
2023-04-28T16:45:13.177Z,4.28
2023-04-28T16:47:43.496Z,3.90
2023-04-28T16:50:14.481Z,3.45
2023-04-28T16:52:43.105Z,3.05
2023-04-28T16:55:11.602Z,4.20
2023-04-28T16:57:41.558Z,3.65
2023-04-28T17:00:11.881Z,2.55
2023-04-28T17:02:40.255Z,3.28
2023-04-28T17:05:10.099Z,2.95
2023-04-28T17:07:38.283Z,3.53
2023-04-28T17:10:08.163Z,4.80
2023-04-28T17:12:36.547Z,2.72
2023-04-28T17:15:08.153Z,2.47
2023-04-28T17:17:37.388Z,2.88
2023-04-28T17:20:08.332Z,2.45
2023-04-28T17:22:36.854Z,3.10
2023-04-28T17:25:06.536Z,3.45
2023-04-28T17:27:34.706Z,2.40
2023-04-28T17:30:02.969Z,2.25
2023-04-28T17:32:33.298Z,2.08
2023-04-28T17:35:01.568Z,2.40
2023-04-28T17:37:31.283Z,3.00
2023-04-28T17:39:59.468Z,2.60
2023-04-28T17:42:30.123Z,1.52
2023-04-28T17:44:58.536Z,0.88
2023-04-28T17:47:26.737Z,1.30
2023-04-28T17:49:56.299Z,1.67
2023-04-28T17:52:24.479Z,1.80
2023-04-28T17:54:52.837Z,1.80
2023-04-28T17:57:21.291Z,0.90
2023-04-28T17:59:51.078Z,1.08
2023-04-28T18:02:19.724Z,1.25
2023-04-28T18:04:48.433Z,1.50
2023-04-28T18:07:18.170Z,2.00
2023-04-28T18:09:46.403Z,2.28
2023-04-28T18:12:14.534Z,1.77
2023-04-28T18:14:44.390Z,2.65
2023-04-28T18:17:12.781Z,2.20
2023-04-28T18:19:42.016Z,2.22
2023-04-28T18:22:10.245Z,2.25
2023-04-28T18:24:39.780Z,1.63
2023-04-28T18:27:07.900Z,1.98
2023-04-28T18:29:36.382Z,1.85
2023-04-28T18:32:04.647Z,3.17
2023-04-28T18:34:32.945Z,8.68
2023-04-28T18:37:01.351Z,7.88
2023-04-28T18:39:29.565Z,6.43
2023-04-28T18:41:59.536Z,5.57
2023-04-28T18:44:28.416Z,5.78
2023-04-28T18:46:56.774Z,5.97
2023-04-28T18:49:25.759Z,4.15
2023-04-28T18:51:54.117Z,3.25
2023-04-28T18:54:22.328Z,4.75
2023-04-28T18:56:52.479Z,7.22
2023-04-28T18:59:22.086Z,7.10
2023-04-28T19:01:50.339Z,6.70
2023-04-28T19:04:18.711Z,6.75
2023-04-28T19:06:47.459Z,3.38
2023-04-28T19:09:15.793Z,5.45
2023-04-28T19:11:44.197Z,4.28
2023-04-28T19:14:12.615Z,4.00
2023-04-28T19:16:42.639Z,4.57
2023-04-28T19:19:11.135Z,6.30
2023-04-28T19:21:45.201Z,5.50
2023-04-28T19:24:13.772Z,4.95
2023-04-28T19:26:42.193Z,3.55
2023-04-28T19:29:11.826Z,3.53
2023-04-28T19:31:41.446Z,3.38
2023-04-28T19:34:09.734Z,3.45
2023-04-28T19:36:38.086Z,3.60
2023-04-28T19:39:06.400Z,3.85
2023-04-28T19:41:37.268Z,3.20
2023-04-28T19:44:05.499Z,3.20
2023-04-28T19:46:33.736Z,3.13
2023-04-28T19:49:03.598Z,5.47
2023-04-28T19:51:32.529Z,3.38
2023-04-28T19:54:00.818Z,4.40
2023-04-28T19:56:29.242Z,5.07
2023-04-28T19:58:58.646Z,5.20
2023-04-28T20:01:26.949Z,4.72
2023-04-28T20:03:55.351Z,4.43
2023-04-28T20:06:25.103Z,4.22
2023-04-28T20:08:53.290Z,3.60
2023-04-28T20:11:21.632Z,2.63
2023-04-28T20:13:50.580Z,2.50
2023-04-28T20:16:20.439Z,2.90
2023-04-28T20:18:49.213Z,3.17
2023-04-28T20:21:17.893Z,2.30
2023-04-28T20:23:47.634Z,2.70
2023-04-28T20:26:16.813Z,2.33
2023-04-28T20:28:47.087Z,2.17
2023-04-28T20:31:16.222Z,2.35
2023-04-28T20:33:44.423Z,2.28
2023-04-28T20:36:14.202Z,2.30
2023-04-28T20:38:42.389Z,1.90
2023-04-28T20:41:12.102Z,1.90
2023-04-28T20:43:41.033Z,2.05
2023-04-28T20:46:11.189Z,1.90
2023-04-28T20:48:39.769Z,1.67
2023-04-28T20:51:08.060Z,1.50
2023-04-28T20:53:36.497Z,1.27
2023-04-28T20:56:04.861Z,1.50
2023-04-28T20:58:35.166Z,2.03
2023-04-28T21:01:03.646Z,2.53
2023-04-28T21:03:32.235Z,3.17
2023-04-28T21:06:00.586Z,2.90
2023-04-28T21:08:29.759Z,3.95
2023-04-28T21:10:58.046Z,4.05
2023-04-28T21:13:26.239Z,2.90
2023-04-28T21:15:56.012Z,2.72
2023-04-28T21:18:24.256Z,2.47
2023-04-28T21:20:54.544Z,1.65
2023-04-28T21:23:22.675Z,2.40
2023-04-28T21:25:51.079Z,2.10
2023-04-28T21:28:19.446Z,2.47
2023-04-28T21:30:47.553Z,1.55
2023-04-28T21:33:17.056Z,1.88
2023-04-28T21:35:45.550Z,2.13
2023-04-28T21:38:13.720Z,1.98
2023-04-28T21:40:42.117Z,2.25
2023-04-28T21:43:10.496Z,1.80
2023-04-28T21:45:38.912Z,1.75
2023-04-28T21:48:07.967Z,1.10
2023-04-28T21:50:37.927Z,1.20
2023-04-28T21:53:06.133Z,1.20
2023-04-28T21:55:34.262Z,2.33
2023-04-28T21:58:02.632Z,1.88
2023-04-28T22:00:31.146Z,1.80
2023-04-28T22:02:59.726Z,2.30
2023-04-28T22:05:29.128Z,3.00
2023-04-28T22:07:58.680Z,3.42
2023-04-28T22:10:27.110Z,2.00
2023-04-28T22:12:55.415Z,1.60
2023-04-28T22:15:23.718Z,1.58
2023-04-28T22:17:51.983Z,1.40
2023-04-28T22:20:20.481Z,1.40
2023-04-28T22:22:48.740Z,1.70
2023-04-28T22:25:18.472Z,1.70
2023-04-28T22:27:46.736Z,1.38
2023-04-28T22:30:15.643Z,1.60
2023-04-28T22:32:44.585Z,1.67
2023-04-28T22:35:13.756Z,1.50
2023-04-28T22:37:43.453Z,1.73
2023-04-28T22:40:12.193Z,1.60
2023-04-28T22:42:44.519Z,1.40
2023-04-28T22:45:13.327Z,1.38
2023-04-28T22:47:42.787Z,1.85
2023-04-28T22:50:12.467Z,1.48
2023-04-28T22:52:40.743Z,1.40
2023-04-28T22:55:09.744Z,1.10
2023-04-28T22:57:37.944Z,1.40
2023-04-28T23:00:09.490Z,1.30
2023-04-28T23:02:37.872Z,1.50
2023-04-28T23:05:07.216Z,1.35
2023-04-28T23:07:35.335Z,1.30
2023-04-28T23:10:05.029Z,0.93
2023-04-28T23:12:33.190Z,0.80
2023-04-28T23:15:01.482Z,1.00
2023-04-28T23:17:31.021Z,0.90
2023-04-28T23:19:59.199Z,1.20
2023-04-28T23:22:27.448Z,1.02
2023-04-28T23:24:55.646Z,0.93
2023-04-28T23:27:23.752Z,0.80
2023-04-28T23:29:52.099Z,1.02
2023-04-28T23:32:20.467Z,0.90
2023-04-28T23:34:49.920Z,0.55
2023-04-28T23:37:18.071Z,1.00
2023-04-28T23:39:46.232Z,1.08
2023-04-28T23:42:14.369Z,1.13
2023-04-28T23:44:42.507Z,0.90
2023-04-28T23:47:10.580Z,1.30
2023-04-28T23:49:38.837Z,0.98
2023-04-28T23:52:08.551Z,1.10
2023-04-28T23:54:36.752Z,1.38
2023-04-28T23:57:05.257Z,1.40
2023-04-28T23:59:33.460Z,1.20
